Time;durP1;ratioP1;P1;durP2;ratioP2;P2;SDS_P1;SDS_P2;PMS_P1;PMS_P2;Temp;Humidity;BMP_temperature;BMP_pressure;BME280_temperature;BME280_humidity;BME280_pressure;Samples;Min_cycle;Max_cycle;Signal;HPM_P1;HPM_P2
2022/04/20 00:00:31;;;;;;;3.70;2.20;;;7.70;34.80;;;;;;5031982;28;20773;-31
2022/04/20 00:02:56;;;;;;;3.72;2.45;;;7.70;35.10;;;;;;5032416;28;20187;-31
2022/04/20 00:05:22;;;;;;;3.43;2.70;;;7.70;35.00;;;;;;5032047;28;20247;-31
2022/04/20 00:07:48;;;;;;;4.80;3.03;;;7.60;35.30;;;;;;5031973;28;20226;-31
2022/04/20 00:10:14;;;;;;;3.93;2.57;;;7.60;35.10;;;;;;5032003;28;20631;-32
2022/04/20 00:12:39;;;;;;;3.63;2.70;;;7.50;34.80;;;;;;5032007;28;20554;-32
2022/04/20 00:15:06;;;;;;;3.73;2.50;;;7.50;35.30;;;;;;5031906;28;20451;-32
2022/04/20 00:17:32;;;;;;;4.38;2.67;;;7.50;35.60;;;;;;5031969;28;20185;-32
2022/04/20 00:19:57;;;;;;;5.20;3.00;;;7.40;35.00;;;;;;5032185;28;20266;-32
2022/04/20 00:22:23;;;;;;;3.43;2.50;;;7.40;34.90;;;;;;5031292;28;20460;-32
2022/04/20 00:24:49;;;;;;;4.10;1.87;;;7.40;34.90;;;;;;5031885;28;20186;-32
2022/04/20 00:27:14;;;;;;;5.60;2.47;;;7.30;35.00;;;;;;5031843;28;20203;-32
2022/04/20 00:29:40;;;;;;;2.47;1.97;;;7.30;35.50;;;;;;5031862;28;20184;-32
2022/04/20 00:32:06;;;;;;;4.37;3.07;;;7.20;35.00;;;;;;5031627;28;20168;-32
2022/04/20 00:34:32;;;;;;;2.97;1.80;;;7.20;35.40;;;;;;5031618;28;20245;-32
2022/04/20 00:36:59;;;;;;;2.40;1.70;;;7.10;35.40;;;;;;5031888;28;20549;-32
2022/04/20 00:39:24;;;;;;;2.28;2.08;;;7.10;35.20;;;;;;5031750;28;20269;-32
2022/04/20 00:41:52;;;;;;;3.30;2.30;;;7.10;35.20;;;;;;5031734;28;20260;-32
2022/04/20 00:44:18;;;;;;;4.53;1.75;;;7.10;35.10;;;;;;5035766;28;20644;-32
2022/04/20 00:46:47;;;;;;;3.22;2.75;;;7.10;35.40;;;;;;5035677;28;20184;-32
2022/04/20 00:49:14;;;;;;;3.67;2.78;;;7.10;35.40;;;;;;5035957;28;20216;-32
2022/04/20 00:51:57;;;;;;;3.88;2.88;;;7.10;35.20;;;;;;5035452;28;20267;-32
2022/04/20 00:54:23;;;;;;;5.22;3.08;;;7.00;35.20;;;;;;5035792;28;20193;-32
2022/04/20 00:56:49;;;;;;;4.18;3.30;;;7.00;35.00;;;;;;5035637;28;20176;-32
2022/04/20 00:59:22;;;;;;;3.45;3.05;;;7.00;35.20;;;;;;5035590;28;20174;-32
2022/04/20 01:01:49;;;;;;;5.03;2.35;;;7.00;35.30;;;;;;5035253;28;20237;-32
2022/04/20 01:04:15;;;;;;;3.88;1.98;;;7.00;35.40;;;;;;5035242;28;20228;-32
2022/04/20 01:06:41;;;;;;;3.45;2.33;;;6.90;35.10;;;;;;5035568;28;20205;-32
2022/04/20 01:09:07;;;;;;;3.05;2.00;;;6.90;35.40;;;;;;5035512;28;20171;-32
2022/04/20 01:11:33;;;;;;;5.57;2.60;;;6.90;35.50;;;;;;5034977;28;20183;-32
2022/04/20 01:13:58;;;;;;;4.43;2.50;;;6.80;36.00;;;;;;5035096;28;20209;-32
2022/04/20 01:16:24;;;;;;;3.40;2.40;;;6.70;36.40;;;;;;5035215;28;20633;-32
2022/04/20 01:18:51;;;;;;;7.67;2.67;;;6.70;36.00;;;;;;5035064;28;20228;-32
2022/04/20 01:21:16;;;;;;;2.67;2.15;;;6.70;36.10;;;;;;5035123;28;20189;-32
2022/04/20 01:23:42;;;;;;;2.17;1.93;;;6.70;35.90;;;;;;5035194;28;20288;-32
2022/04/20 01:26:09;;;;;;;3.57;2.10;;;6.80;35.80;;;;;;5034779;28;20205;-32
2022/04/20 01:28:42;;;;;;;1.75;1.58;;;6.80;36.00;;;;;;5034921;28;20198;-32
2022/04/20 01:31:08;;;;;;;4.63;3.10;;;6.80;36.00;;;;;;5034836;28;20159;-32
2022/04/20 01:33:33;;;;;;;2.63;2.03;;;6.70;35.80;;;;;;5034985;28;20181;-32
2022/04/20 01:35:59;;;;;;;5.00;2.37;;;6.70;36.20;;;;;;5035030;28;20532;-32
2022/04/20 01:38:26;;;;;;;3.63;3.30;;;6.70;36.20;;;;;;5034733;28;20408;-32
2022/04/20 01:40:52;;;;;;;5.18;2.92;;;6.70;37.00;;;;;;5034595;28;20176;-32
2022/04/20 01:43:18;;;;;;;2.70;2.50;;;6.70;36.20;;;;;;5034830;28;20178;-32
2022/04/20 01:45:43;;;;;;;3.67;2.70;;;6.60;36.30;;;;;;5034606;28;20524;-32
2022/04/20 01:48:09;;;;;;;4.60;3.27;;;6.60;36.10;;;;;;5034468;28;20198;-32
2022/04/20 01:51:46;;;;;;;2.70;2.43;;;6.60;36.40;;;;;;5034534;28;20244;-32
2022/04/20 01:53:21;;;;;;;3.42;2.17;;;6.60;36.20;;;;;;5034175;28;20551;-31
2022/04/20 01:55:47;;;;;;;2.53;2.10;;;6.60;36.10;;;;;;5033929;28;20178;-32
2022/04/20 01:58:13;;;;;;;3.33;2.10;;;6.60;36.10;;;;;;5034459;28;20174;-31
2022/04/20 02:00:38;;;;;;;2.33;2.13;;;6.60;35.90;;;;;;5034087;28;20216;-31
2022/04/20 02:03:04;;;;;;;2.57;2.37;;;6.60;36.10;;;;;;5034285;28;20641;-31
2022/04/20 02:05:30;;;;;;;5.00;2.00;;;6.50;36.10;;;;;;5034067;28;20256;-31
2022/04/20 02:07:57;;;;;;;4.20;2.77;;;6.50;36.20;;;;;;5033285;28;20209;-32
2022/04/20 02:10:23;;;;;;;2.85;1.90;;;6.50;36.30;;;;;;5034196;28;20590;-32
2022/04/20 02:12:48;;;;;;;4.03;2.38;;;6.50;36.40;;;;;;5034285;28;20184;-32
2022/04/20 02:15:14;;;;;;;2.50;1.97;;;6.50;36.40;;;;;;5033988;28;20201;-32
2022/04/20 02:17:40;;;;;;;6.53;3.07;;;6.50;36.30;;;;;;5034166;28;20178;-32
2022/04/20 02:20:06;;;;;;;3.83;3.17;;;6.50;36.90;;;;;;5033977;28;20209;-32
2022/04/20 02:22:32;;;;;;;2.47;1.63;;;6.40;37.10;;;;;;5033782;28;20200;-32
2022/04/20 02:24:59;;;;;;;5.33;3.67;;;6.40;36.90;;;;;;5033838;28;20232;-32
2022/04/20 02:27:26;;;;;;;3.45;1.70;;;6.40;36.80;;;;;;5033766;28;20260;-31
2022/04/20 02:29:52;;;;;;;3.53;2.10;;;6.40;36.60;;;;;;5033751;28;20520;-31
2022/04/20 02:32:17;;;;;;;2.70;1.97;;;6.40;36.90;;;;;;5033552;28;20173;-31
2022/04/20 02:34:43;;;;;;;3.13;2.60;;;6.40;36.80;;;;;;5033969;28;20252;-31
2022/04/20 02:37:09;;;;;;;3.40;2.03;;;6.30;37.40;;;;;;5033671;28;20432;-31
2022/04/20 02:39:36;;;;;;;3.67;2.72;;;6.20;37.10;;;;;;5033643;28;20238;-32
2022/04/20 02:42:06;;;;;;;3.92;2.47;;;6.20;37.00;;;;;;5033276;28;20551;-32
2022/04/20 02:44:32;;;;;;;5.18;2.20;;;6.20;37.40;;;;;;5033750;28;20201;-32
2022/04/20 02:46:58;;;;;;;3.03;2.30;;;6.20;37.00;;;;;;5033542;28;20205;-32
2022/04/20 02:49:23;;;;;;;5.10;3.20;;;6.20;37.10;;;;;;5033663;28;20520;-31
2022/04/20 02:51:49;;;;;;;3.00;2.20;;;6.10;37.10;;;;;;5033208;28;20635;-31
2022/04/20 02:54:15;;;;;;;6.03;3.40;;;6.10;37.10;;;;;;5032077;28;20289;-31
2022/04/20 02:56:41;;;;;;;4.13;2.05;;;6.10;37.10;;;;;;5033139;28;20169;-31
2022/04/20 02:59:07;;;;;;;4.93;2.60;;;6.10;36.90;;;;;;5033158;28;20174;-31
2022/04/20 03:01:33;;;;;;;6.53;2.50;;;6.10;36.70;;;;;;5033161;28;20256;-31
2022/04/20 03:03:59;;;;;;;3.40;1.65;;;6.10;37.20;;;;;;5033070;28;20192;-31
2022/04/20 03:06:25;;;;;;;2.90;2.25;;;6.10;37.10;;;;;;5032339;28;20543;-31
2022/04/20 03:08:51;;;;;;;10.77;3.75;;;6.10;36.90;;;;;;5033270;28;20198;-32
2022/04/20 03:11:17;;;;;;;3.80;2.37;;;6.10;37.20;;;;;;5032766;28;20262;-32
2022/04/20 03:13:42;;;;;;;2.90;1.93;;;6.10;37.10;;;;;;5032981;28;20579;-32
2022/04/20 03:16:08;;;;;;;4.80;2.70;;;6.10;36.90;;;;;;5032853;28;20170;-32
2022/04/20 03:18:34;;;;;;;2.67;2.30;;;6.10;37.00;;;;;;5033175;28;20177;-31
2022/04/20 03:21:01;;;;;;;2.93;2.03;;;6.10;36.80;;;;;;5032632;28;20672;-30
2022/04/20 03:23:28;;;;;;;4.13;2.30;;;6.10;37.10;;;;;;5032704;28;20659;-30
2022/04/20 03:25:54;;;;;;;4.00;2.08;;;6.10;36.90;;;;;;5032655;28;20547;-30
2022/04/20 03:28:20;;;;;;;3.30;2.57;;;6.10;36.80;;;;;;5032873;28;20204;-31
2022/04/20 03:30:45;;;;;;;2.40;2.10;;;6.10;37.00;;;;;;5032529;28;20177;-32
2022/04/20 03:33:11;;;;;;;2.50;2.20;;;6.10;36.90;;;;;;5032659;28;20409;-30
2022/04/20 03:35:38;;;;;;;2.07;1.83;;;6.10;36.90;;;;;;5032575;28;20424;-31
2022/04/20 03:38:08;;;;;;;3.45;1.88;;;6.10;36.90;;;;;;5032550;28;20409;-31
2022/04/20 03:40:34;;;;;;;3.05;1.80;;;6.10;37.20;;;;;;5032189;28;20639;-30
2022/04/20 03:43:01;;;;;;;2.05;1.42;;;6.10;37.20;;;;;;5032475;28;20675;-31
2022/04/20 03:45:27;;;;;;;3.03;1.95;;;6.10;37.10;;;;;;5032305;28;20692;-31
2022/04/20 03:47:53;;;;;;;7.43;3.83;;;6.10;37.10;;;;;;5032209;28;20206;-30
2022/04/20 03:50:19;;;;;;;3.20;1.93;;;6.20;37.30;;;;;;5032464;28;20437;-30
2022/04/20 03:52:45;;;;;;;15.50;2.57;;;6.20;37.30;;;;;;5032608;28;20205;-30
2022/04/20 03:55:11;;;;;;;2.80;2.00;;;6.20;37.10;;;;;;5032144;28;20983;-31
2022/04/20 03:57:37;;;;;;;4.10;1.95;;;6.20;37.60;;;;;;5032480;28;20463;-32
2022/04/20 04:00:05;;;;;;;2.70;1.63;;;6.20;37.30;;;;;;5032113;28;20178;-32
2022/04/20 04:02:30;;;;;;;4.65;2.63;;;6.20;37.40;;;;;;5031936;28;20177;-32
2022/04/20 04:04:56;;;;;;;2.50;2.13;;;6.20;37.50;;;;;;5032183;28;20240;-31
2022/04/20 04:07:22;;;;;;;3.40;2.20;;;6.20;37.30;;;;;;5032024;28;20216;-31
2022/04/20 04:09:48;;;;;;;2.67;1.95;;;6.20;37.50;;;;;;5031990;28;20252;-31
2022/04/20 04:12:14;;;;;;;3.80;2.50;;;7.10;38.00;;;;;;5031749;28;20269;-31
2022/04/20 04:14:41;;;;;;;3.20;2.90;;;6.20;37.80;;;;;;5031855;28;20293;-31
2022/04/20 04:17:07;;;;;;;3.50;3.00;;;6.20;37.90;;;;;;5031935;28;20186;-31
2022/04/20 04:19:35;;;;;;;7.38;2.47;;;6.30;37.90;;;;;;5032236;28;20290;-31
2022/04/20 04:22:05;;;;;;;3.40;2.35;;;6.30;37.70;;;;;;5031603;28;20189;-31
2022/04/20 04:24:37;;;;;;;4.18;3.78;;;6.40;37.90;;;;;;5031833;28;20206;-31
2022/04/20 04:27:10;;;;;;;6.45;3.65;;;6.50;37.90;;;;;;5031818;28;20683;-31
2022/04/20 04:29:37;;;;;;;3.00;2.70;;;6.50;38.20;;;;;;5031872;28;20612;-31
2022/04/20 04:32:03;;;;;;;4.00;2.35;;;6.50;37.90;;;;;;5031663;28;20581;-31
2022/04/20 04:34:29;;;;;;;2.60;2.25;;;6.60;38.00;;;;;;5031828;28;20246;-30
2022/04/20 04:36:55;;;;;;;3.15;2.72;;;6.70;38.10;;;;;;5031714;28;20655;-31
2022/04/20 04:39:23;;;;;;;2.65;1.95;;;6.70;38.10;;;;;;5031774;28;20189;-31
2022/04/20 04:41:49;;;;;;;3.88;2.75;;;6.70;38.00;;;;;;5031514;28;20647;-31
2022/04/20 04:44:19;;;;;;;2.92;1.92;;;6.70;38.50;;;;;;5031555;28;20197;-31
2022/04/20 04:49:30;;;;;;;4.03;3.45;;;6.90;38.40;;;;;;5031971;28;20255;-31
2022/04/20 04:51:58;;;;;;;4.00;2.67;;;6.90;38.30;;;;;;5031544;28;20189;-31
2022/04/20 04:54:24;;;;;;;2.95;2.65;;;6.90;38.40;;;;;;5031557;28;20192;-31
2022/04/20 04:56:50;;;;;;;8.40;3.95;;;7.00;38.30;;;;;;5031656;28;20256;-31
2022/04/20 04:59:16;;;;;;;5.13;3.78;;;7.00;38.30;;;;;;5031604;28;20162;-31
2022/04/20 05:01:42;;;;;;;5.77;2.70;;;7.10;38.50;;;;;;5031626;28;20602;-31
2022/04/20 05:04:08;;;;;;;9.88;2.92;;;7.10;38.30;;;;;;5031464;28;20443;-31
2022/04/20 05:06:34;;;;;;;4.27;2.80;;;7.10;38.60;;;;;;5032155;28;20632;-31
2022/04/20 05:09:00;;;;;;;4.07;2.50;;;7.20;38.50;;;;;;5031666;28;20861;-31
2022/04/20 05:11:26;;;;;;;5.10;2.63;;;7.20;38.50;;;;;;5031287;28;20171;-31
2022/04/20 05:13:51;;;;;;;3.93;2.30;;;7.20;39.00;;;;;;5031231;28;20664;-31
2022/04/20 05:16:17;;;;;;;5.10;2.93;;;7.20;38.70;;;;;;5031696;28;20155;-31
2022/04/20 05:18:43;;;;;;;3.77;2.60;;;7.20;38.50;;;;;;5031438;28;20513;-31
2022/04/20 05:21:08;;;;;;;4.17;3.77;;;7.20;38.70;;;;;;5031208;28;20166;-31
2022/04/20 05:23:34;;;;;;;3.60;2.97;;;7.20;38.60;;;;;;5031209;28;20640;-31
2022/04/20 05:26:00;;;;;;;4.23;2.60;;;7.20;38.40;;;;;;5031379;28;20166;-31
2022/04/20 05:28:25;;;;;;;4.13;3.70;;;7.20;38.30;;;;;;5031485;28;20225;-31
2022/04/20 05:30:51;;;;;;;3.87;2.87;;;7.30;38.30;;;;;;5034122;28;20162;-31
2022/04/20 05:33:17;;;;;;;4.73;3.20;;;7.40;38.20;;;;;;5034775;28;20186;-31
2022/04/20 05:35:42;;;;;;;4.13;2.97;;;7.50;38.40;;;;;;5034796;28;20170;-31
2022/04/20 05:43:36;;;;;;;4.28;2.85;;;7.60;38.00;;;;;;5034523;28;20256;-31
2022/04/20 05:46:03;;;;;;;4.60;3.87;;;7.70;38.30;;;;;;5034620;28;20171;-31
2022/04/20 05:48:29;;;;;;;6.70;3.45;;;7.70;38.10;;;;;;5034707;28;20594;-31
2022/04/20 05:50:54;;;;;;;5.27;3.67;;;7.80;38.40;;;;;;5034355;28;20260;-31
2022/04/20 05:53:20;;;;;;;4.27;3.40;;;7.80;38.20;;;;;;5034688;28;20918;-31
2022/04/20 05:55:46;;;;;;;9.10;3.60;;;7.80;38.20;;;;;;5034419;28;20170;-31
2022/04/20 05:58:12;;;;;;;4.10;2.33;;;7.80;38.30;;;;;;5034340;28;20553;-32
2022/04/20 06:00:37;;;;;;;3.13;2.83;;;7.90;38.50;;;;;;5034212;28;20546;-31
2022/04/20 06:03:03;;;;;;;4.17;3.30;;;7.90;38.40;;;;;;5034186;28;20170;-31
2022/04/20 06:05:29;;;;;;;5.03;3.80;;;7.90;38.60;;;;;;5034236;28;20328;-31
2022/04/20 06:07:55;;;;;;;4.63;3.03;;;8.00;38.30;;;;;;5034314;28;20711;-31
2022/04/20 06:10:21;;;;;;;4.32;2.83;;;8.00;38.70;;;;;;5033882;28;20189;-31
2022/04/20 06:12:47;;;;;;;8.30;3.30;;;8.00;38.30;;;;;;5033917;28;20262;-31
2022/04/20 06:15:13;;;;;;;2.80;2.17;;;8.10;38.40;;;;;;5034056;28;20283;-31
2022/04/20 06:17:39;;;;;;;3.83;3.20;;;8.10;38.40;;;;;;5034296;28;20631;-31
2022/04/20 06:20:05;;;;;;;4.77;3.03;;;8.20;38.20;;;;;;5034629;28;20476;-32
2022/04/20 06:22:31;;;;;;;6.00;2.75;;;8.20;38.30;;;;;;5034519;28;20178;-31
2022/04/20 06:24:56;;;;;;;4.37;3.40;;;8.30;38.40;;;;;;5034104;28;20487;-31
2022/04/20 06:27:31;;;;;;;6.43;3.63;;;8.40;38.10;;;;;;5033701;28;20204;-31
2022/04/20 06:29:58;;;;;;;8.57;3.83;;;8.50;38.10;;;;;;5049339;28;20619;-31
2022/04/20 06:32:24;;;;;;;5.60;3.88;;;8.60;37.80;;;;;;5033662;28;20200;-31
2022/04/20 06:34:54;;;;;;;5.40;3.30;;;8.70;37.70;;;;;;5033772;28;20193;-32
2022/04/20 06:37:22;;;;;;;3.53;3.03;;;8.90;37.70;;;;;;5033721;28;20636;-31
2022/04/20 06:39:49;;;;;;;3.55;3.25;;;8.90;37.60;;;;;;5033520;28;20261;-31
2022/04/20 06:42:15;;;;;;;7.75;3.30;;;9.00;37.60;;;;;;5033350;28;20538;-32
2022/04/20 06:44:41;;;;;;;10.83;3.80;;;9.10;37.50;;;;;;5033559;28;20195;-32
2022/04/20 06:47:07;;;;;;;6.87;4.57;;;9.20;37.40;;;;;;5033340;28;20446;-31
2022/04/20 06:49:33;;;;;;;6.05;4.85;;;9.30;37.10;;;;;;5033527;28;20176;-32
2022/04/20 07:00:11;;;;;;;4.53;3.10;;;9.40;36.90;;;;;;5033192;28;20212;-31
2022/04/20 07:02:37;;;;;;;9.20;3.58;;;9.50;37.10;;;;;;5032826;28;20742;-31
2022/04/20 07:05:03;;;;;;;4.63;3.17;;;9.50;36.90;;;;;;5033318;28;20284;-32
2022/04/20 07:07:28;;;;;;;5.60;3.85;;;9.60;36.80;;;;;;5033068;28;20244;-31
2022/04/20 07:09:54;;;;;;;5.50;3.40;;;9.70;36.80;;;;;;5032511;28;20196;-32
2022/04/20 07:12:20;;;;;;;3.73;3.40;;;9.80;36.80;;;;;;5032795;28;20166;-31
2022/04/20 07:14:46;;;;;;;4.00;2.67;;;9.80;36.50;;;;;;5032701;28;20705;-32
2022/04/20 07:17:11;;;;;;;6.78;2.70;;;9.90;36.60;;;;;;5032642;28;20174;-31
2022/04/20 07:19:37;;;;;;;7.87;3.67;;;10.00;36.40;;;;;;5033101;28;20729;-31
2022/04/20 07:22:03;;;;;;;4.40;3.60;;;10.00;36.30;;;;;;5032541;28;20173;-32
2022/04/20 07:24:29;;;;;;;5.80;2.83;;;10.10;36.40;;;;;;5032719;28;20189;-31
2022/04/20 07:26:54;;;;;;;4.30;3.27;;;10.10;36.00;;;;;;5032619;28;20412;-32
2022/04/20 07:29:20;;;;;;;5.20;4.53;;;10.10;35.80;;;;;;5032678;28;20162;-32
2022/04/20 07:31:46;;;;;;;3.93;3.20;;;10.10;36.00;;;;;;5032275;28;20299;-32
2022/04/20 07:34:12;;;;;;;7.80;5.40;;;10.20;36.20;;;;;;5032694;28;20193;-32
2022/04/20 07:36:38;;;;;;;7.28;4.25;;;10.30;35.90;;;;;;5032639;28;20488;-32
2022/04/20 07:39:03;;;;;;;8.30;5.10;;;10.30;35.90;;;;;;5032538;28;20804;-32
2022/04/20 07:41:29;;;;;;;8.13;4.83;;;10.40;36.50;;;;;;5032171;28;20192;-32
2022/04/20 07:43:55;;;;;;;6.70;3.87;;;10.50;35.70;;;;;;5032390;28;20239;-32
2022/04/20 07:46:22;;;;;;;6.00;4.60;;;10.50;35.50;;;;;;5032350;28;20926;-32
2022/04/20 07:48:48;;;;;;;7.57;4.05;;;10.60;35.80;;;;;;5032571;28;20444;-32
2022/04/20 07:51:14;;;;;;;5.95;5.15;;;10.70;35.50;;;;;;5032044;28;20166;-32
2022/04/20 07:53:40;;;;;;;6.22;4.82;;;10.70;35.40;;;;;;5032009;28;20200;-32
2022/04/20 07:56:06;;;;;;;7.83;4.67;;;11.30;35.10;;;;;;5032290;28;20249;-32
2022/04/20 07:58:31;;;;;;;10.03;5.77;;;10.80;34.80;;;;;;5032552;28;20412;-32
2022/04/20 08:00:57;;;;;;;6.90;4.80;;;10.80;34.80;;;;;;5031875;28;20184;-32
2022/04/20 08:03:24;;;;;;;8.30;5.87;;;10.90;35.00;;;;;;5031917;28;20173;-32
2022/04/20 08:05:51;;;;;;;5.55;4.60;;;10.90;34.90;;;;;;5032211;28;20412;-32
2022/04/20 08:08:18;;;;;;;6.90;4.07;;;11.00;35.10;;;;;;5031922;28;20200;-32
2022/04/20 08:10:43;;;;;;;5.65;3.75;;;11.10;35.40;;;;;;5031948;28;20201;-32
2022/04/20 08:15:57;;;;;;;7.43;5.10;;;11.40;34.30;;;;;;5032052;28;20189;-32
2022/04/20 08:18:23;;;;;;;5.60;4.32;;;11.50;34.60;;;;;;5032224;28;20186;-32
2022/04/20 08:20:50;;;;;;;7.97;3.55;;;11.60;34.50;;;;;;5031958;28;20181;-32
2022/04/20 08:23:16;;;;;;;6.60;4.78;;;11.80;34.60;;;;;;5031782;28;20189;-32
2022/04/20 08:25:42;;;;;;;9.52;5.68;;;11.90;34.50;;;;;;5031920;28;20174;-32
2022/04/20 08:28:10;;;;;;;7.45;6.07;;;11.90;34.30;;;;;;5031856;28;20201;-32
2022/04/20 08:30:37;;;;;;;6.22;5.18;;;12.00;34.20;;;;;;5034544;28;20170;-32
2022/04/20 08:33:07;;;;;;;7.75;5.05;;;12.10;34.20;;;;;;5032422;28;20521;-32
2022/04/20 08:35:34;;;;;;;5.60;4.40;;;12.20;33.90;;;;;;5031798;28;20256;-32
2022/04/20 08:38:00;;;;;;;4.53;4.13;;;12.30;34.10;;;;;;5031766;28;20223;-32
2022/04/20 08:40:27;;;;;;;6.23;5.63;;;12.40;34.30;;;;;;5031578;28;20261;-32
2022/04/20 08:42:54;;;;;;;10.57;5.10;;;12.40;33.80;;;;;;5031746;28;20173;-32
2022/04/20 08:45:21;;;;;;;5.88;4.97;;;12.40;33.80;;;;;;5031793;28;20198;-32
2022/04/20 08:47:50;;;;;;;7.57;4.20;;;12.50;33.80;;;;;;5031216;28;20193;-32
2022/04/20 08:50:16;;;;;;;5.97;4.07;;;12.50;33.50;;;;;;5031883;28;20193;-32
2022/04/20 08:52:42;;;;;;;7.70;4.88;;;12.50;34.00;;;;;;5031523;28;20178;-32
2022/04/20 08:55:20;;;;;;;6.93;5.13;;;12.60;34.10;;;;;;5031382;28;20201;-32
2022/04/20 08:57:48;;;;;;;6.28;4.68;;;12.70;34.10;;;;;;5031241;28;20174;-32
2022/04/20 09:00:27;;;;;;;8.65;5.65;;;12.80;33.70;;;;;;5031534;28;20206;-32
2022/04/20 09:02:57;;;;;;;9.32;4.40;;;12.80;33.40;;;;;;5031903;28;20157;-32
2022/04/20 09:05:24;;;;;;;6.13;5.18;;;12.80;33.20;;;;;;5035335;28;20655;-32
2022/04/20 09:07:50;;;;;;;6.88;6.10;;;12.90;33.80;;;;;;5035645;28;20629;-32
2022/04/20 09:10:16;;;;;;;6.32;4.50;;;13.00;33.80;;;;;;5035279;28;20257;-32
2022/04/20 09:12:43;;;;;;;5.87;4.80;;;13.10;33.70;;;;;;5035166;28;20244;-32
2022/04/20 09:15:14;;;;;;;8.57;4.88;;;13.10;33.20;;;;;;5035193;28;20450;-32
2022/04/20 09:17:44;;;;;;;6.20;4.55;;;13.20;33.30;;;;;;5035251;28;20624;-32
2022/04/20 09:20:16;;;;;;;7.78;5.20;;;13.30;33.20;;;;;;5035023;28;20186;-32
2022/04/20 09:22:57;;;;;;;4.85;4.35;;;13.30;32.70;;;;;;5034999;28;20170;-32
2022/04/20 09:25:33;;;;;;;6.18;4.97;;;13.30;32.70;;;;;;5035427;28;20227;-32
2022/04/20 09:27:59;;;;;;;5.13;4.55;;;13.30;32.70;;;;;;5035022;28;20772;-32
2022/04/20 09:30:25;;;;;;;9.25;4.28;;;13.40;32.90;;;;;;5034791;28;20224;-32
2022/04/20 09:32:50;;;;;;;7.33;5.00;;;13.40;32.80;;;;;;5034852;28;20174;-32
2022/04/20 09:35:18;;;;;;;4.53;3.37;;;13.40;32.70;;;;;;5034772;28;20467;-32
2022/04/20 09:37:45;;;;;;;6.22;4.72;;;13.40;32.80;;;;;;5034733;28;20182;-32
2022/04/20 09:40:13;;;;;;;6.93;5.43;;;13.40;31.00;;;;;;5034733;28;20170;-32
2022/04/20 09:43:02;;;;;;;6.65;4.90;;;13.30;32.40;;;;;;5034509;28;20209;-32
2022/04/20 09:45:28;;;;;;;5.60;4.28;;;13.40;32.60;;;;;;5034549;28;20599;-32
2022/04/20 09:50:39;;;;;;;6.00;3.67;;;13.50;32.70;;;;;;5034653;28;20216;-32
2022/04/20 09:53:10;;;;;;;7.93;4.80;;;13.60;32.60;;;;;;5034580;28;20174;-32
2022/04/20 09:55:38;;;;;;;7.05;3.83;;;13.60;32.20;;;;;;5034238;28;20269;-32
2022/04/20 09:58:21;;;;;;;4.88;3.50;;;13.70;32.20;;;;;;5034683;28;20640;-32
2022/04/20 10:00:48;;;;;;;5.32;3.75;;;13.70;32.30;;;;;;5034493;28;20504;-32
2022/04/20 10:03:24;;;;;;;4.75;3.17;;;13.70;32.00;;;;;;5034277;28;20639;-32
2022/04/20 10:05:50;;;;;;;6.10;3.97;;;13.70;31.60;;;;;;5034312;28;20264;-32
2022/04/20 10:08:17;;;;;;;5.50;3.33;;;13.70;31.30;;;;;;5034721;28;20210;-32
2022/04/20 10:10:44;;;;;;;5.97;3.78;;;13.70;31.30;;;;;;5034074;28;20163;-32
2022/04/20 10:13:11;;;;;;;4.22;3.63;;;13.70;31.00;;;;;;5034146;28;20178;-32
2022/04/20 10:18:25;;;;;;;5.88;3.25;;;13.80;31.30;;;;;;5035046;28;20178;-32
2022/04/20 10:20:57;;;;;;;5.50;3.15;;;13.80;31.40;;;;;;5034831;28;20184;-32
2022/04/20 10:23:24;;;;;;;5.68;3.03;;;13.80;31.30;;;;;;5034710;28;20624;-32
2022/04/20 10:25:52;;;;;;;4.55;3.97;;;13.80;31.50;;;;;;5034842;28;20256;-32
2022/04/20 10:28:36;;;;;;;4.40;3.40;;;13.80;31.50;;;;;;5034858;28;20225;-32
2022/04/20 10:31:20;;;;;;;4.93;3.55;;;13.80;31.10;;;;;;5035002;28;20556;-32
2022/04/20 10:33:46;;;;;;;4.80;2.92;;;13.70;31.80;;;;;;5034724;28;20564;-32
2022/04/20 10:36:15;;;;;;;6.10;4.35;;;13.70;32.30;;;;;;5034870;28;20174;-32
2022/04/20 10:38:44;;;;;;;3.42;3.10;;;13.60;32.60;;;;;;5033702;28;20181;-32
2022/04/20 10:41:10;;;;;;;5.32;3.60;;;13.70;33.10;;;;;;5033418;28;20185;-32
2022/04/20 10:43:44;;;;;;;6.35;4.60;;;13.60;33.20;;;;;;5033550;28;20181;-32
2022/04/20 10:46:17;;;;;;;5.15;3.72;;;14.40;34.10;;;;;;5033823;28;20200;-32
2022/04/20 10:48:55;;;;;;;4.90;3.42;;;13.60;33.40;;;;;;5033466;28;20766;-32
2022/04/20 10:51:24;;;;;;;7.32;4.65;;;13.50;33.90;;;;;;5031860;28;20189;-32
2022/04/20 10:53:51;;;;;;;12.95;3.97;;;13.50;34.20;;;;;;5033104;28;20686;-32
2022/04/20 10:56:20;;;;;;;5.70;3.83;;;13.50;34.80;;;;;;5033645;28;20252;-32
2022/04/20 10:59:07;;;;;;;5.82;4.43;;;13.50;34.70;;;;;;5033780;28;20173;-32
2022/04/20 11:02:01;;;;;;;6.45;3.83;;;13.50;35.50;;;;;;5033127;28;20563;-32
2022/04/20 11:04:33;;;;;;;7.93;3.67;;;13.50;36.00;;;;;;5033030;28;20281;-32
2022/04/20 11:06:59;;;;;;;6.60;3.78;;;13.40;36.90;;;;;;5033016;28;20685;-32
2022/04/20 11:09:46;;;;;;;6.30;4.87;;;13.40;36.60;;;;;;5033275;28;20177;-32
2022/04/20 11:21:07;;;;;;;3.85;3.45;;;13.60;37.30;;;;;;4991127;28;20279;-32
2022/04/20 11:23:49;;;;;;;4.75;3.60;;;13.70;38.50;;;;;;4990977;28;20179;-32
2022/04/20 11:26:21;;;;;;;4.10;3.35;;;13.70;38.50;;;;;;4990496;28;20558;-32
2022/04/20 11:28:49;;;;;;;6.38;4.97;;;13.70;38.10;;;;;;4990473;28;20238;-32
2022/04/20 11:31:16;;;;;;;5.03;3.70;;;13.80;38.40;;;;;;4990633;28;20186;-32
2022/04/20 11:33:41;;;;;;;6.15;4.03;;;13.80;37.80;;;;;;4990902;28;20195;-32
2022/04/20 11:36:12;;;;;;;5.57;3.80;;;13.90;38.20;;;;;;4990898;28;20557;-32
2022/04/20 11:38:46;;;;;;;6.65;4.65;;;13.90;37.90;;;;;;4991000;28;20418;-33
2022/04/20 11:41:13;;;;;;;5.50;3.83;;;13.90;37.60;;;;;;4990511;28;20183;-32
2022/04/20 11:43:40;;;;;;;4.05;3.65;;;13.80;38.70;;;;;;4991052;28;20199;-32
2022/04/20 11:46:10;;;;;;;5.35;3.17;;;13.80;39.00;;;;;;4990711;28;20179;-32
2022/04/20 11:48:49;;;;;;;9.70;5.13;;;13.70;39.00;;;;;;5006958;28;20213;-32
2022/04/20 11:51:21;;;;;;;7.53;4.68;;;13.80;39.10;;;;;;5032410;28;20164;-32
2022/04/20 11:53:48;;;;;;;6.78;4.25;;;13.90;40.00;;;;;;5032281;28;20232;-32
2022/04/20 11:56:15;;;;;;;7.40;4.22;;;13.90;39.00;;;;;;5032213;28;20218;-32
2022/04/20 11:58:46;;;;;;;7.40;4.72;;;14.10;39.20;;;;;;5032499;28;20809;-32
2022/04/20 12:01:12;;;;;;;6.35;5.28;;;14.10;39.70;;;;;;5032407;28;20166;-32
2022/04/20 12:03:41;;;;;;;5.47;3.87;;;14.20;39.40;;;;;;5032105;28;20201;-32
2022/04/20 12:06:08;;;;;;;6.57;3.83;;;14.30;39.70;;;;;;5032204;28;20166;-32
2022/04/20 12:08:40;;;;;;;6.30;3.70;;;14.30;39.00;;;;;;5032083;28;20209;-32
2022/04/20 12:11:10;;;;;;;9.23;4.22;;;14.10;39.70;;;;;;5031972;28;20784;-33
2022/04/20 12:13:39;;;;;;;5.25;4.07;;;14.00;39.10;;;;;;5032418;28;20176;-32
2022/04/20 12:16:10;;;;;;;4.88;3.75;;;13.90;39.30;;;;;;5031946;28;20177;-32
2022/04/20 12:18:40;;;;;;;8.38;5.25;;;13.90;39.50;;;;;;5032164;28;20178;-32
2022/04/20 12:21:27;;;;;;;8.80;4.45;;;13.90;39.50;;;;;;5032416;28;20616;-32
2022/04/20 12:23:53;;;;;;;5.45;3.58;;;13.90;39.20;;;;;;5031983;28;20277;-32
2022/04/20 12:26:27;;;;;;;7.10;4.80;;;13.90;39.70;;;;;;5031475;28;20265;-32
2022/04/20 12:28:58;;;;;;;4.68;4.15;;;13.90;39.80;;;;;;5031694;28;20435;-32
2022/04/20 12:31:25;;;;;;;5.47;3.95;;;13.80;39.60;;;;;;5031798;28;20170;-32
2022/04/20 12:34:01;;;;;;;7.60;4.70;;;13.80;40.00;;;;;;5031611;28;20186;-33
2022/04/20 12:36:29;;;;;;;6.25;4.20;;;13.80;40.40;;;;;;5032166;28;20173;-32
2022/04/20 12:38:55;;;;;;;6.38;4.55;;;13.80;40.20;;;;;;5033312;28;20672;-32
2022/04/20 12:41:37;;;;;;;5.82;3.28;;;13.90;40.20;;;;;;5035219;28;20198;-32
2022/04/20 12:44:34;;;;;;;6.20;4.30;;;13.90;39.90;;;;;;5036013;28;20193;-32
2022/04/20 12:47:21;;;;;;;7.70;4.00;;;13.90;39.90;;;;;;5035933;28;20190;-32
2022/04/20 12:50:10;;;;;;;5.07;3.72;;;14.00;39.90;;;;;;5024965;28;20177;-32
2022/04/20 12:52:37;;;;;;;7.35;4.40;;;13.90;40.00;;;;;;5035477;28;20184;-33
2022/04/20 12:55:08;;;;;;;5.45;3.55;;;13.90;39.90;;;;;;5035820;28;20247;-33
2022/04/20 13:03:11;;;;;;;4.63;4.18;;;13.70;40.50;;;;;;5035706;28;20635;-32
2022/04/20 13:05:38;;;;;;;6.93;4.20;;;13.50;41.70;;;;;;5035745;28;20205;-32
2022/04/20 13:08:05;;;;;;;5.25;4.28;;;13.40;41.20;;;;;;5035246;28;20676;-33
2022/04/20 13:10:35;;;;;;;5.32;3.75;;;13.50;41.50;;;;;;5035132;28;20890;-32
2022/04/20 13:13:01;;;;;;;5.72;4.20;;;13.50;41.70;;;;;;5035495;28;20579;-32
2022/04/20 13:15:29;;;;;;;6.30;4.43;;;13.60;42.30;;;;;;5035046;28;20284;-32
2022/04/20 13:17:57;;;;;;;4.40;3.38;;;13.60;42.50;;;;;;5035254;28;20232;-32
2022/04/20 13:20:23;;;;;;;6.13;3.88;;;13.70;42.40;;;;;;5034956;28;20169;-33
2022/04/20 13:22:49;;;;;;;6.50;4.88;;;13.70;41.90;;;;;;5034989;28;20635;-32
2022/04/20 13:27:59;;;;;;;10.85;4.60;;;13.80;42.30;;;;;;5035002;28;20446;-32
2022/04/20 13:30:35;;;;;;;4.50;3.60;;;13.80;43.70;;;;;;5034725;28;20173;-32
2022/04/20 13:33:03;;;;;;;5.15;3.33;;;13.70;42.70;;;;;;5035230;28;20509;-32
2022/04/20 13:35:29;;;;;;;5.95;4.88;;;13.80;43.60;;;;;;5034803;28;20193;-32
2022/04/20 13:37:55;;;;;;;7.60;4.10;;;13.80;42.90;;;;;;5034874;28;20177;-32